Time;durP1;ratioP1;P1;durP2;ratioP2;P2;SDS_P1;SDS_P2;PMS_P1;PMS_P2;Temp;Humidity;BMP_temperature;BMP_pressure;BME280_temperature;BME280_humidity;BME280_pressure;Samples;Min_cycle;Max_cycle;Signal;HPM_P1;HPM_P2
2024/01/12 00:01:24;;;;;;;1.20;1.20;;;3.80;99.90;;;;;;5004085;28;20232;-80
2024/01/12 00:03:50;;;;;;;1.13;1.13;;;4.10;99.90;;;;;;4987729;28;20501;-80
2024/01/12 00:06:15;;;;;;;1.13;1.13;;;4.10;99.90;;;;;;5006603;28;20559;-81
2024/01/12 00:08:41;;;;;;;1.10;1.10;;;4.00;99.90;;;;;;5005395;28;20095;-80
2024/01/12 00:11:09;;;;;;;1.20;1.20;;;3.80;99.90;;;;;;5003655;28;20033;-81
2024/01/12 00:13:35;;;;;;;1.20;1.20;;;4.00;99.90;;;;;;5006003;28;20120;-80
2024/01/12 00:16:07;;;;;;;1.15;1.15;;;4.00;99.90;;;;;;5004183;28;20050;-80
2024/01/12 00:18:33;;;;;;;1.20;1.20;;;3.80;99.90;;;;;;5003905;28;20049;-79
2024/01/12 00:20:59;;;;;;;1.50;1.40;;;3.80;99.90;;;;;;4987332;28;20069;-79
2024/01/12 00:23:25;;;;;;;1.20;1.20;;;4.00;99.90;;;;;;5006986;28;20486;-81
2024/01/12 00:25:51;;;;;;;1.20;1.20;;;4.00;99.90;;;;;;4985310;28;20042;-80
2024/01/12 00:28:17;;;;;;;1.15;1.15;;;3.90;99.90;;;;;;4988647;28;20046;-80
2024/01/12 00:30:45;;;;;;;1.20;1.20;;;3.90;99.90;;;;;;5003410;28;20046;-80
2024/01/12 00:33:12;;;;;;;1.20;1.20;;;4.10;99.90;;;;;;5005122;28;20053;-80
2024/01/12 00:35:38;;;;;;;1.13;1.13;;;4.10;99.90;;;;;;5005680;28;20525;-80
2024/01/12 00:38:03;;;;;;;1.20;1.20;;;4.00;99.90;;;;;;4987800;28;20143;-79
2024/01/12 00:40:29;;;;;;;1.10;1.10;;;4.20;99.90;;;;;;4986245;28;20054;-80
2024/01/12 00:42:55;;;;;;;1.10;1.10;;;4.20;99.90;;;;;;4990148;28;20045;-80
2024/01/12 00:45:21;;;;;;;1.20;1.20;;;3.90;99.90;;;;;;4988385;28;20048;-80
2024/01/12 00:47:46;;;;;;;1.20;1.20;;;3.80;99.90;;;;;;4985133;28;20049;-80
2024/01/12 00:50:12;;;;;;;1.10;1.10;;;3.90;99.90;;;;;;4988920;28;20049;-80
2024/01/12 00:52:38;;;;;;;1.10;1.10;;;4.20;99.90;;;;;;5005065;28;20092;-80
2024/01/12 00:55:04;;;;;;;1.10;1.10;;;4.20;99.90;;;;;;4985457;28;20635;-80
2024/01/12 00:57:29;;;;;;;1.10;1.10;;;4.30;99.90;;;;;;5002502;28;20589;-80
2024/01/12 00:59:55;;;;;;;1.20;1.20;;;4.20;99.90;;;;;;4987007;28;20045;-80
2024/01/12 01:02:21;;;;;;;1.20;1.20;;;4.30;99.90;;;;;;5002886;28;20524;-80
2024/01/12 01:04:46;;;;;;;1.20;1.20;;;3.90;99.90;;;;;;5004582;28;20041;-80
2024/01/12 01:07:12;;;;;;;1.17;1.17;;;4.00;99.90;;;;;;5003951;28;20096;-80
2024/01/12 01:09:38;;;;;;;1.10;1.10;;;3.90;99.90;;;;;;5004308;28;20046;-80
2024/01/12 01:12:04;;;;;;;1.20;1.20;;;4.00;99.90;;;;;;5001834;28;20734;-80
2024/01/12 01:14:29;;;;;;;1.20;1.20;;;4.20;99.90;;;;;;5005386;28;20049;-80
2024/01/12 01:16:55;;;;;;;1.20;1.20;;;4.20;99.90;;;;;;5003284;28;20111;-80
2024/01/12 01:19:21;;;;;;;1.10;1.10;;;4.20;99.90;;;;;;4986210;28;20053;-80
2024/01/12 01:21:47;;;;;;;1.20;1.20;;;4.30;99.90;;;;;;4984105;28;20591;-80
2024/01/12 01:24:13;;;;;;;1.10;1.10;;;4.30;99.90;;;;;;5005940;28;20037;-80
2024/01/12 01:26:39;;;;;;;1.20;1.20;;;4.00;99.90;;;;;;4986037;28;20053;-80
2024/01/12 01:29:04;;;;;;;1.17;1.17;;;3.90;99.90;;;;;;5001671;28;20053;-80
2024/01/12 01:31:30;;;;;;;1.20;1.20;;;4.10;99.90;;;;;;5001804;28;20149;-80
2024/01/12 01:33:56;;;;;;;1.10;1.10;;;4.20;99.90;;;;;;4985029;28;20049;-80
2024/01/12 01:36:22;;;;;;;1.10;1.10;;;4.00;99.90;;;;;;5002253;28;20052;-80
2024/01/12 01:38:48;;;;;;;1.20;1.20;;;4.20;99.90;;;;;;5004466;28;20049;-80
2024/01/12 01:41:13;;;;;;;1.20;1.20;;;4.30;99.90;;;;;;4986414;28;20058;-80
2024/01/12 01:43:39;;;;;;;1.20;1.20;;;4.20;99.90;;;;;;5004300;28;20562;-80
2024/01/12 01:46:05;;;;;;;1.50;1.40;;;4.10;99.90;;;;;;5003655;28;20045;-80
2024/01/12 01:48:31;;;;;;;1.20;1.20;;;4.30;99.90;;;;;;4999940;28;20052;-80
2024/01/12 01:50:57;;;;;;;1.17;1.17;;;4.30;99.90;;;;;;4999715;28;20057;-80
2024/01/12 01:53:23;;;;;;;1.20;1.20;;;4.30;99.90;;;;;;5005462;28;20065;-80
2024/01/12 01:55:49;;;;;;;1.15;1.15;;;4.40;99.90;;;;;;4989570;28;20050;-80
2024/01/12 01:58:16;;;;;;;1.17;1.17;;;4.10;99.90;;;;;;5003024;28;20041;-80
2024/01/12 02:00:44;;;;;;;1.20;1.20;;;4.10;99.90;;;;;;5001612;28;20042;-80
2024/01/12 02:03:10;;;;;;;1.20;1.20;;;4.20;99.90;;;;;;4986161;28;20129;-80
2024/01/12 02:05:36;;;;;;;1.20;1.20;;;4.00;99.90;;;;;;4984811;28;20060;-80
2024/01/12 02:08:02;;;;;;;1.23;1.23;;;4.00;99.90;;;;;;5000838;28;20491;-80
2024/01/12 02:10:28;;;;;;;1.30;1.30;;;4.20;99.90;;;;;;4980175;28;20049;-80
2024/01/12 02:12:54;;;;;;;1.20;1.20;;;4.40;99.90;;;;;;4997800;28;20046;-80
2024/01/12 02:15:22;;;;;;;1.10;1.10;;;4.10;99.90;;;;;;5001868;28;20052;-80
2024/01/12 02:17:48;;;;;;;1.20;1.20;;;4.30;99.90;;;;;;4999157;28;20564;-80
2024/01/12 02:20:13;;;;;;;1.20;1.20;;;4.30;99.90;;;;;;4981726;28;20056;-80
2024/01/12 02:22:39;;;;;;;1.20;1.20;;;4.20;99.90;;;;;;4983540;28;20056;-80
2024/01/12 02:25:05;;;;;;;1.15;1.15;;;4.20;99.90;;;;;;5000403;28;20073;-80
2024/01/12 02:27:31;;;;;;;1.20;1.20;;;4.50;99.90;;;;;;5000769;28;20050;-80
2024/01/12 02:29:57;;;;;;;1.20;1.20;;;4.50;99.90;;;;;;4981770;28;20430;-80
2024/01/12 02:32:23;;;;;;;1.20;1.20;;;4.30;99.90;;;;;;4982909;28;20050;-80
2024/01/12 02:34:50;;;;;;;1.13;1.13;;;4.40;99.90;;;;;;4999018;28;20052;-80
2024/01/12 02:37:16;;;;;;;1.20;1.20;;;4.50;99.90;;;;;;5000056;28;20042;-80
2024/01/12 02:39:42;;;;;;;1.20;1.20;;;4.30;99.90;;;;;;5002124;28;20053;-79
2024/01/12 02:42:08;;;;;;;1.20;1.20;;;4.50;99.90;;;;;;4999975;28;20045;-80
2024/01/12 02:44:33;;;;;;;1.20;1.20;;;4.60;99.90;;;;;;4984958;28;20050;-80
2024/01/12 02:46:59;;;;;;;1.20;1.20;;;4.30;99.90;;;;;;5001396;28;20119;-80
2024/01/12 02:49:25;;;;;;;1.20;1.20;;;4.50;99.90;;;;;;5000691;28;20044;-80
2024/01/12 02:51:51;;;;;;;1.10;1.10;;;4.70;99.90;;;;;;4999612;28;20045;-80
2024/01/12 02:54:16;;;;;;;1.20;1.20;;;4.70;99.90;;;;;;4999167;28;20125;-80
2024/01/12 02:56:42;;;;;;;1.13;1.13;;;4.30;99.90;;;;;;4982608;28;20065;-81
2024/01/12 02:59:08;;;;;;;1.20;1.20;;;4.60;99.90;;;;;;5000179;28;20038;-80
2024/01/12 03:01:34;;;;;;;1.20;1.20;;;4.40;99.90;;;;;;5000409;28;20611;-81
2024/01/12 03:04:00;;;;;;;1.20;1.20;;;4.70;99.90;;;;;;4999686;28;20096;-80
2024/01/12 03:06:26;;;;;;;1.20;1.20;;;4.80;99.90;;;;;;4981001;28;20416;-80
2024/01/12 03:08:51;;;;;;;1.13;1.13;;;4.70;99.90;;;;;;4999972;28;20048;-80
2024/01/12 03:11:17;;;;;;;1.20;1.20;;;4.90;99.90;;;;;;4984618;28;20069;-80
2024/01/12 03:13:43;;;;;;;1.20;1.20;;;4.90;99.90;;;;;;5005931;28;20046;-80
2024/01/12 03:16:21;;;;;;;1.10;1.10;;;4.80;99.90;;;;;;5003884;28;20132;-80
2024/01/12 03:18:48;;;;;;;1.20;1.20;;;4.60;99.90;;;;;;5004025;28;20121;-81
2024/01/12 03:21:15;;;;;;;1.20;1.20;;;4.90;99.90;;;;;;5004410;28;20128;-80
2024/01/12 03:23:41;;;;;;;1.10;1.10;;;4.90;99.90;;;;;;4983441;28;20057;-81
2024/01/12 03:26:07;;;;;;;1.10;1.10;;;5.00;99.90;;;;;;4984485;28;20050;-80
2024/01/12 03:28:34;;;;;;;1.20;1.20;;;4.80;99.90;;;;;;5004801;28;20049;-81
2024/01/12 03:31:03;;;;;;;1.10;1.10;;;4.60;99.90;;;;;;4985219;28;20050;-80
2024/01/12 03:33:29;;;;;;;1.13;1.13;;;4.70;99.90;;;;;;5003378;28;20053;-80
2024/01/12 03:35:54;;;;;;;1.10;1.10;;;4.70;99.90;;;;;;4988573;28;20037;-80
2024/01/12 03:38:20;;;;;;;1.15;1.15;;;4.80;99.90;;;;;;5004920;28;20046;-81
2024/01/12 03:40:46;;;;;;;1.10;1.10;;;4.70;99.90;;;;;;5003487;28;20050;-80
2024/01/12 03:43:11;;;;;;;1.20;1.20;;;4.60;99.90;;;;;;4988713;28;20109;-80
2024/01/12 03:45:37;;;;;;;1.13;1.13;;;4.80;99.90;;;;;;5005028;28;20133;-80
2024/01/12 03:48:03;;;;;;;1.10;1.10;;;4.80;99.90;;;;;;5001292;28;20229;-80
2024/01/12 03:50:29;;;;;;;1.17;1.17;;;4.60;99.90;;;;;;4985385;28;20156;-80
2024/01/12 03:52:54;;;;;;;1.10;1.10;;;4.60;99.90;;;;;;5002696;28;20140;-80
2024/01/12 03:55:20;;;;;;;1.10;1.10;;;4.70;99.90;;;;;;4984930;28;20483;-80
2024/01/12 03:57:46;;;;;;;1.20;1.20;;;4.50;99.90;;;;;;5002851;28;20038;-80
2024/01/12 04:00:12;;;;;;;1.20;1.20;;;4.50;99.90;;;;;;4981077;28;20115;-80
2024/01/12 04:02:37;;;;;;;1.27;1.27;;;4.70;99.90;;;;;;4985151;28;20054;-80
2024/01/12 04:05:04;;;;;;;1.20;1.20;;;4.90;99.90;;;;;;5002060;28;20069;-80
2024/01/12 04:07:30;;;;;;;1.20;1.20;;;4.60;99.90;;;;;;5005132;28;20056;-81
2024/01/12 04:09:56;;;;;;;1.20;1.20;;;4.90;99.90;;;;;;4985944;28;20404;-80
2024/01/12 04:12:21;;;;;;;1.25;1.25;;;4.60;99.90;;;;;;4985407;28;20095;-81
2024/01/12 04:14:47;;;;;;;1.30;1.30;;;4.50;99.90;;;;;;4987273;28;20451;-81
2024/01/12 04:17:13;;;;;;;1.20;1.20;;;4.60;99.90;;;;;;5001898;28;20133;-81
2024/01/12 04:19:39;;;;;;;1.30;1.30;;;4.80;99.90;;;;;;5005728;28;20084;-81
2024/01/12 04:22:04;;;;;;;1.27;1.27;;;4.90;99.90;;;;;;4983944;28;20483;-80
2024/01/12 04:24:31;;;;;;;1.30;1.30;;;4.60;99.90;;;;;;4982814;28;20115;-81
2024/01/12 04:26:57;;;;;;;1.20;1.20;;;4.70;99.90;;;;;;4984276;28;20046;-81
2024/01/12 04:29:22;;;;;;;1.20;1.20;;;4.80;99.90;;;;;;4983850;28;20128;-81
2024/01/12 04:31:48;;;;;;;1.20;1.20;;;4.60;99.90;;;;;;5002263;28;20058;-80
2024/01/12 04:34:15;;;;;;;1.20;1.20;;;4.80;99.90;;;;;;4982764;28;20046;-81
2024/01/12 04:36:41;;;;;;;1.20;1.20;;;4.90;99.90;;;;;;5002707;28;20077;-81
2024/01/12 04:39:07;;;;;;;1.23;1.23;;;4.60;99.90;;;;;;4984036;28;20708;-80
2024/01/12 04:41:33;;;;;;;1.20;1.20;;;4.80;99.90;;;;;;4984955;28;20142;-81
2024/01/12 04:43:58;;;;;;;1.20;1.20;;;4.60;99.90;;;;;;5000291;28;20046;-81
2024/01/12 04:46:24;;;;;;;1.20;1.20;;;4.60;99.90;;;;;;4985605;28;20050;-81
2024/01/12 04:48:50;;;;;;;1.20;1.20;;;4.70;99.90;;;;;;4982178;28;20061;-80
2024/01/12 04:51:15;;;;;;;1.20;1.20;;;4.80;99.90;;;;;;5001482;28;20042;-80
2024/01/12 04:53:41;;;;;;;1.20;1.20;;;4.90;99.90;;;;;;4985596;28;20120;-82
2024/01/12 04:56:07;;;;;;;1.20;1.20;;;4.80;99.90;;;;;;5003895;28;20050;-81
2024/01/12 04:58:32;;;;;;;1.20;1.20;;;4.70;99.90;;;;;;4985120;28;20069;-81
2024/01/12 05:00:58;;;;;;;1.20;1.20;;;5.00;99.90;;;;;;4981388;28;20050;-81
2024/01/12 05:03:24;;;;;;;1.20;1.20;;;5.00;99.90;;;;;;4984177;28;20415;-81
2024/01/12 05:05:50;;;;;;;1.20;1.20;;;4.70;99.90;;;;;;5001265;28;20044;-81
2024/01/12 05:08:15;;;;;;;1.20;1.20;;;4.90;99.90;;;;;;4983079;28;20072;-81
2024/01/12 05:10:41;;;;;;;1.20;1.20;;;5.00;99.90;;;;;;5002177;28;20045;-81
2024/01/12 05:13:07;;;;;;;1.20;1.20;;;5.00;99.90;;;;;;4979321;28;20051;-81
2024/01/12 05:15:32;;;;;;;1.20;1.20;;;4.70;99.90;;;;;;4985952;28;20129;-81
2024/01/12 05:17:58;;;;;;;1.20;1.20;;;4.70;99.90;;;;;;5001468;28;20057;-81
2024/01/12 05:20:25;;;;;;;1.20;1.20;;;4.70;99.90;;;;;;4998014;28;20332;-82
2024/01/12 05:22:51;;;;;;;6.38;6.10;;;4.90;99.90;;;;;;4982118;28;20115;-82
2024/01/12 05:25:17;;;;;;;1.20;1.20;;;4.70;99.90;;;;;;4984816;28;20050;-81
2024/01/12 05:27:42;;;;;;;1.20;1.20;;;4.70;99.90;;;;;;4979392;28;20100;-82
2024/01/12 05:30:09;;;;;;;1.20;1.20;;;5.00;99.90;;;;;;4978691;28;20515;-81
2024/01/12 05:32:34;;;;;;;1.23;1.23;;;4.80;99.90;;;;;;4977367;28;20050;-82
2024/01/12 05:35:00;;;;;;;1.20;1.20;;;4.70;99.90;;;;;;4983196;28;20633;-82
2024/01/12 05:37:26;;;;;;;1.20;1.20;;;4.70;99.90;;;;;;4982010;28;20599;-82
2024/01/12 05:39:52;;;;;;;1.20;1.20;;;4.70;99.90;;;;;;4985106;28;20136;-82
2024/01/12 05:42:18;;;;;;;1.30;1.30;;;4.70;99.90;;;;;;4982227;28;20385;-82
2024/01/12 05:44:43;;;;;;;1.30;1.30;;;4.90;99.90;;;;;;4983970;28;20049;-82
2024/01/12 05:47:09;;;;;;;1.20;1.20;;;4.90;99.90;;;;;;4980494;28;20076;-82
2024/01/12 05:49:38;;;;;;;1.30;1.30;;;4.80;99.90;;;;;;4981707;28;20140;-82
2024/01/12 05:52:04;;;;;;;1.20;1.20;;;4.70;99.90;;;;;;4998306;28;20049;-81
2024/01/12 05:54:30;;;;;;;1.20;1.20;;;4.60;99.90;;;;;;5000812;28;20493;-81
2024/01/12 05:56:55;;;;;;;1.30;1.30;;;4.90;99.90;;;;;;4983419;28;20064;-81
2024/01/12 05:59:21;;;;;;;1.20;1.20;;;5.00;99.90;;;;;;5003407;28;20033;-82
2024/01/12 06:01:48;;;;;;;1.30;1.30;;;5.00;99.90;;;;;;4982849;28;20046;-82
2024/01/12 06:04:13;;;;;;;1.20;1.20;;;4.90;99.90;;;;;;4981894;28;20069;-81
2024/01/12 06:06:42;;;;;;;1.30;1.30;;;4.80;99.90;;;;;;4997832;28;20084;-81
2024/01/12 06:09:08;;;;;;;1.20;1.20;;;4.90;99.90;;;;;;4997624;28;20049;-82
2024/01/12 06:11:34;;;;;;;1.20;1.20;;;4.90;99.90;;;;;;4978459;28;20542;-82
2024/01/12 06:14:00;;;;;;;1.20;1.20;;;4.80;99.90;;;;;;4978565;28;20069;-82
2024/01/12 06:16:26;;;;;;;1.20;1.20;;;4.90;99.90;;;;;;4983090;28;20446;-82
2024/01/12 06:18:52;;;;;;;1.23;1.23;;;4.80;99.90;;;;;;4981320;28;20040;-82
2024/01/12 06:21:17;;;;;;;1.20;1.20;;;5.00;99.90;;;;;;4984229;28;20514;-82
2024/01/12 06:23:43;;;;;;;1.20;1.20;;;4.80;99.90;;;;;;4982732;28;20041;-81
2024/01/12 06:26:09;;;;;;;1.30;1.30;;;5.10;99.90;;;;;;4983788;28;20503;-82
2024/01/12 06:28:34;;;;;;;1.20;1.20;;;4.70;99.90;;;;;;4998577;28;20065;-82
2024/01/12 06:31:00;;;;;;;1.30;1.30;;;4.70;99.90;;;;;;4997621;28;20038;-82
2024/01/12 06:33:26;;;;;;;1.30;1.30;;;4.90;99.90;;;;;;4982308;28;20038;-83
2024/01/12 06:35:51;;;;;;;1.25;1.25;;;5.00;99.90;;;;;;4984437;28;20050;-83
2024/01/12 06:38:17;;;;;;;1.30;1.30;;;4.70;99.90;;;;;;4984360;28;20175;-82
2024/01/12 06:40:43;;;;;;;1.30;1.30;;;5.00;99.90;;;;;;4982141;28;20053;-82
2024/01/12 06:43:08;;;;;;;1.20;1.20;;;4.90;99.90;;;;;;4983068;28;20076;-82
2024/01/12 06:45:34;;;;;;;1.30;1.30;;;4.60;99.90;;;;;;4980502;28;20065;-83
2024/01/12 06:48:00;;;;;;;1.30;1.30;;;4.70;99.90;;;;;;4988740;28;20191;-82
2024/01/12 06:50:28;;;;;;;1.23;1.23;;;4.90;99.90;;;;;;4985697;28;20053;-82
2024/01/12 06:52:55;;;;;;;1.30;1.30;;;5.10;99.90;;;;;;5003815;28;20053;-82
2024/01/12 06:55:21;;;;;;;1.30;1.30;;;4.70;99.90;;;;;;5001601;28;20695;-82
2024/01/12 06:57:47;;;;;;;1.30;1.30;;;4.90;99.90;;;;;;4982361;28;20074;-83
2024/01/12 07:00:16;;;;;;;1.30;1.30;;;4.90;99.90;;;;;;4984927;28;20403;-83
2024/01/12 07:02:42;;;;;;;1.30;1.30;;;5.10;99.90;;;;;;4968834;28;20042;-82
2024/01/12 07:05:08;;;;;;;1.20;1.20;;;5.10;99.90;;;;;;4987772;28;20041;-82
2024/01/12 07:07:33;;;;;;;1.20;1.20;;;5.10;99.90;;;;;;4991302;28;20388;-82
2024/01/12 07:09:59;;;;;;;1.23;1.23;;;4.70;99.90;;;;;;5003935;28;20065;-82
2024/01/12 07:12:25;;;;;;;1.30;1.30;;;4.80;99.90;;;;;;4987412;28;20048;-83
2024/01/12 07:14:50;;;;;;;1.30;1.30;;;5.00;99.90;;;;;;4972090;28;20103;-82
2024/01/12 07:17:16;;;;;;;1.30;1.30;;;5.00;99.90;;;;;;5006231;28;20042;-82
2024/01/12 07:19:43;;;;;;;1.30;1.30;;;4.70;99.90;;;;;;4991890;28;20053;-82
2024/01/12 07:22:09;;;;;;;1.30;1.30;;;4.90;99.90;;;;;;4989332;28;20053;-82
2024/01/12 07:24:35;;;;;;;1.20;1.20;;;4.80;99.90;;;;;;5008419;28;20045;-82
2024/01/12 07:27:01;;;;;;;1.23;1.23;;;4.80;99.90;;;;;;4989475;28;20400;-83
2024/01/12 07:29:26;;;;;;;1.30;1.30;;;5.00;99.90;;;;;;4984164;28;20077;-82
2024/01/12 07:31:52;;;;;;;1.25;1.25;;;4.90;99.90;;;;;;4991255;28;20037;-83
2024/01/12 07:34:18;;;;;;;1.40;1.40;;;4.90;99.90;;;;;;5004872;28;20060;-82
2024/01/12 07:36:44;;;;;;;1.30;1.30;;;5.00;99.90;;;;;;4988412;28;20045;-83
2024/01/12 07:39:10;;;;;;;1.50;1.40;;;4.90;99.90;;;;;;4989639;28;20045;-83
2024/01/12 07:41:36;;;;;;;1.30;1.30;;;4.80;99.90;;;;;;5003062;28;20050;-82
2024/01/12 07:44:01;;;;;;;1.30;1.30;;;5.00;99.90;;;;;;4988876;28;20042;-83
2024/01/12 07:46:28;;;;;;;1.30;1.30;;;5.00;99.90;;;;;;5002740;28;20046;-82
2024/01/12 07:48:55;;;;;;;1.42;1.40;;;5.00;99.90;;;;;;4987196;28;20057;-82
2024/01/12 07:51:21;;;;;;;1.30;1.30;;;4.90;99.90;;;;;;4988171;28;20095;-82
2024/01/12 07:53:47;;;;;;;1.30;1.30;;;5.00;99.90;;;;;;4972002;28;20056;-83
2024/01/12 07:56:12;;;;;;;1.30;1.30;;;4.90;99.90;;;;;;4986427;28;20061;-82
2024/01/12 07:58:38;;;;;;;1.20;1.20;;;5.00;99.90;;;;;;4987663;28;20058;-82
2024/01/12 08:01:07;;;;;;;1.35;1.30;;;4.80;99.90;;;;;;4988997;28;20511;-82
2024/01/12 08:03:33;;;;;;;1.30;1.30;;;4.80;99.90;;;;;;4967399;28;20053;-82
2024/01/12 08:06:00;;;;;;;1.30;1.30;;;4.90;99.90;;;;;;4988831;28;20052;-83
2024/01/12 08:08:25;;;;;;;1.30;1.30;;;5.10;99.90;;;;;;4986177;28;20512;-83
2024/01/12 08:10:51;;;;;;;1.30;1.30;;;4.90;99.90;;;;;;5005045;28;20046;-83
2024/01/12 08:13:17;;;;;;;1.30;1.30;;;4.90;99.90;;;;;;4985811;28;20558;-83
2024/01/12 08:15:42;;;;;;;1.30;1.30;;;5.00;99.90;;;;;;4970410;28;20049;-83
2024/01/12 08:18:08;;;;;;;1.30;1.30;;;5.20;99.90;;;;;;5004982;28;20380;-82
2024/01/12 08:20:34;;;;;;;1.30;1.30;;;5.20;99.90;;;;;;5006202;28;20686;-83
2024/01/12 08:22:59;;;;;;;1.30;1.30;;;4.90;99.90;;;;;;4985159;28;20045;-83
2024/01/12 08:25:25;;;;;;;1.50;1.40;;;5.20;99.90;;;;;;5002498;28;20487;-82
2024/01/12 08:27:51;;;;;;;1.30;1.30;;;5.00;99.90;;;;;;4984986;28;20043;-83
2024/01/12 08:30:16;;;;;;;1.40;1.35;;;5.30;99.90;;;;;;4969831;28;20080;-82
2024/01/12 08:32:42;;;;;;;1.30;1.30;;;5.30;99.90;;;;;;4987550;28;20115;-83
2024/01/12 08:35:08;;;;;;;1.30;1.30;;;5.20;99.90;;;;;;5000244;28;21920;-82
2024/01/12 08:37:33;;;;;;;1.30;1.30;;;5.20;99.90;;;;;;5000626;28;20111;-83
2024/01/12 08:39:59;;;;;;;1.33;1.33;;;5.00;99.90;;;;;;4969923;28;20088;-83
2024/01/12 08:42:25;;;;;;;1.30;1.30;;;5.10;99.90;;;;;;4980187;28;20048;-83
2024/01/12 08:44:51;;;;;;;1.35;1.33;;;5.20;99.90;;;;;;4978332;28;20046;-83
2024/01/12 08:47:19;;;;;;;1.30;1.30;;;5.20;99.90;;;;;;4966047;28;20058;-81
2024/01/12 08:49:45;;;;;;;1.27;1.27;;;5.40;99.90;;;;;;4987382;28;20085;-83
2024/01/12 08:52:10;;;;;;;1.45;1.40;;;5.30;99.90;;;;;;4990356;28;20093;-83
2024/01/12 08:54:36;;;;;;;1.30;1.30;;;5.10;99.90;;;;;;4984909;28;20403;-83
2024/01/12 08:57:02;;;;;;;1.30;1.30;;;5.10;99.90;;;;;;4990159;28;20045;-83
2024/01/12 08:59:28;;;;;;;1.30;1.30;;;5.40;99.90;;;;;;4988747;28;20042;-83
2024/01/12 09:01:54;;;;;;;1.30;1.30;;;5.20;99.90;;;;;;4986520;28;20519;-83
2024/01/12 09:04:20;;;;;;;1.50;1.40;;;5.40;99.90;;;;;;4980600;28;20054;-83
2024/01/12 09:06:45;;;;;;;1.30;1.30;;;5.20;99.90;;;;;;4984017;28;20072;-83
2024/01/12 09:09:11;;;;;;;1.50;1.40;;;5.30;99.90;;;;;;4990334;28;20625;-83
2024/01/12 09:11:37;;;;;;;1.30;1.30;;;5.20;99.90;;;;;;4973492;28;20080;-82
2024/01/12 09:14:03;;;;;;;1.35;1.35;;;5.50;99.90;;;;;;5006891;28;20092;-83
2024/01/12 09:16:29;;;;;;;1.40;1.35;;;5.30;99.90;;;;;;4989736;28;20052;-83
2024/01/12 09:18:55;;;;;;;1.50;1.40;;;5.40;99.90;;;;;;5005234;28;20129;-83
2024/01/12 09:21:20;;;;;;;1.30;1.30;;;5.60;99.90;;;;;;4987690;28;20053;-83
2024/01/12 09:23:46;;;;;;;1.58;1.48;;;5.40;99.90;;;;;;5007325;28;20038;-83
2024/01/12 09:26:12;;;;;;;1.33;1.33;;;5.60;99.90;;;;;;4987829;28;20085;-83
2024/01/12 09:28:38;;;;;;;1.40;1.35;;;5.60;99.90;;;;;;4987002;28;20077;-83
2024/01/12 09:31:05;;;;;;;1.45;1.38;;;5.60;99.90;;;;;;4970456;28;20051;-83
2024/01/12 09:33:30;;;;;;;1.50;1.40;;;5.60;99.90;;;;;;4988662;28;20072;-83
2024/01/12 09:35:56;;;;;;;1.50;1.40;;;5.40;99.90;;;;;;4987705;28;20073;-83
2024/01/12 09:38:22;;;;;;;1.50;1.40;;;5.50;99.90;;;;;;5006718;28;20038;-83
2024/01/12 09:40:48;;;;;;;1.50;1.40;;;5.50;99.90;;;;;;4987441;28;20058;-84
2024/01/12 09:43:14;;;;;;;1.45;1.40;;;5.70;99.90;;;;;;4969341;28;20053;-84
2024/01/12 09:45:45;;;;;;;1.50;1.40;;;5.60;99.90;;;;;;4987199;28;20042;-83
2024/01/12 09:48:11;;;;;;;1.45;1.40;;;5.70;99.90;;;;;;4980488;28;20123;-84
2024/01/12 09:50:38;;;;;;;1.50;1.40;;;5.60;99.90;;;;;;4987597;28;20450;-83
2024/01/12 09:53:05;;;;;;;1.40;1.40;;;5.70;99.90;;;;;;4986395;28;20046;-84
2024/01/12 09:55:30;;;;;;;1.50;1.40;;;5.80;99.90;;;;;;4988020;28;20558;-84
2024/01/12 09:57:56;;;;;;;1.48;1.40;;;5.80;99.90;;;;;;4969405;28;20041;-84
2024/01/12 10:00:26;;;;;;;1.50;1.40;;;5.80;99.90;;;;;;5002984;28;20049;-84
2024/01/12 10:02:55;;;;;;;1.40;1.40;;;5.60;99.90;;;;;;4967066;28;20038;-84
2024/01/12 10:05:22;;;;;;;1.50;1.40;;;5.70;99.90;;;;;;4986221;28;20041;-84
2024/01/12 10:07:48;;;;;;;1.50;1.40;;;5.80;99.90;;;;;;4986755;28;20053;-84
2024/01/12 10:10:13;;;;;;;1.50;1.40;;;5.80;99.90;;;;;;4987546;28;20050;-84
2024/01/12 10:12:39;;;;;;;1.52;1.42;;;5.90;99.90;;;;;;4985029;28;20126;-82
2024/01/12 10:15:10;;;;;;;1.60;1.50;;;5.80;99.90;;;;;;4989160;28;20046;-84
2024/01/12 10:17:36;;;;;;;1.52;1.42;;;6.00;99.90;;;;;;4968425;28;20053;-84
2024/01/12 10:20:03;;;;;;;1.50;1.40;;;5.80;99.90;;;;;;4987540;28;20050;-84
2024/01/12 10:22:30;;;;;;;1.40;1.38;;;5.80;99.90;;;;;;4985231;28;20149;-83
2024/01/12 10:25:00;;;;;;;1.50;1.42;;;5.90;99.90;;;;;;5003619;28;20046;-84
2024/01/12 10:27:27;;;;;;;1.50;1.40;;;5.90;99.90;;;;;;4971248;28;20491;-83
2024/01/12 10:29:53;;;;;;;1.42;1.40;;;6.00;99.90;;;;;;4988574;28;20053;-84
2024/01/12 10:32:19;;;;;;;1.50;1.40;;;5.90;99.90;;;;;;4987129;28;20050;-84
2024/01/12 10:34:49;;;;;;;1.55;1.45;;;6.00;99.90;;;;;;4975008;28;20506;-84
2024/01/12 10:37:16;;;;;;;1.48;1.40;;;5.90;99.90;;;;;;4986865;28;20053;-84
2024/01/12 10:39:44;;;;;;;1.55;1.45;;;6.10;99.90;;;;;;5001362;28;20123;-84
2024/01/12 10:42:11;;;;;;;1.42;1.38;;;6.00;99.90;;;;;;4986648;28;20046;-84
2024/01/12 10:44:40;;;;;;;1.58;1.48;;;6.10;99.90;;;;;;4987279;28;20163;-84
2024/01/12 10:47:09;;;;;;;1.50;1.40;;;6.20;99.90;;;;;;4984126;28;20041;-84
2024/01/12 10:50:06;;;;;;;1.42;1.40;;;6.10;99.90;;;;;;4989999;28;20058;-84
2024/01/12 10:52:50;;;;;;;1.50;1.40;;;6.20;99.90;;;;;;4982518;28;20056;-85
2024/01/12 10:55:21;;;;;;;1.55;1.45;;;6.30;99.90;;;;;;4985307;28;20042;-85
2024/01/12 10:57:47;;;;;;;1.50;1.40;;;6.10;99.90;;;;;;4986179;28;20076;-85
2024/01/12 11:00:14;;;;;;;1.45;1.40;;;6.40;99.90;;;;;;5003441;28;20046;-85
2024/01/12 11:02:41;;;;;;;1.50;1.40;;;6.40;99.90;;;;;;4989115;28;20121;-85
2024/01/12 11:05:11;;;;;;;1.60;1.50;;;6.20;99.90;;;;;;4986035;28;20140;-85
2024/01/12 11:07:39;;;;;;;1.40;1.40;;;6.20;99.90;;;;;;4985881;28;20127;-84
2024/01/12 11:10:06;;;;;;;1.50;1.40;;;6.40;99.90;;;;;;4990811;28;20080;-85
2024/01/12 11:12:34;;;;;;;1.50;1.40;;;6.30;99.90;;;;;;4984450;28;22373;-85
2024/01/12 11:15:00;;;;;;;1.30;1.30;;;6.30;99.90;;;;;;4971475;28;20057;-84
2024/01/12 11:17:30;;;;;;;1.30;1.30;;;6.50;99.90;;;;;;4987736;28;20054;-84
2024/01/12 11:20:04;;;;;;;1.30;1.30;;;6.50;99.90;;;;;;4970201;28;20061;-84
2024/01/12 11:22:30;;;;;;;1.30;1.30;;;6.60;99.90;;;;;;4987243;28;20365;-86
2024/01/12 11:24:58;;;;;;;1.20;1.20;;;6.70;99.90;;;;;;4986188;28;20499;-85
2024/01/12 11:27:34;;;;;;;1.20;1.20;;;6.80;99.90;;;;;;4971305;28;20142;-85
2024/01/12 11:30:01;;;;;;;1.33;1.33;;;6.80;99.90;;;;;;4988940;28;20161;-84
2024/01/12 11:32:28;;;;;;;1.23;1.23;;;6.80;99.90;;;;;;4989197;28;20038;-85
2024/01/12 11:35:13;;;;;;;1.25;1.25;;;6.80;99.90;;;;;;4990007;28;20054;-85
2024/01/12 11:37:40;;;;;;;1.30;1.30;;;6.80;99.90;;;;;;4993311;28;20049;-85
2024/01/12 11:40:09;;;;;;;1.20;1.20;;;6.90;99.90;;;;;;4993755;28;20048;-85
2024/01/12 11:42:39;;;;;;;1.23;1.23;;;7.00;99.90;;;;;;4975281;28;20053;-85
2024/01/12 11:45:10;;;;;;;1.17;1.17;;;7.20;99.90;;;;;;4993525;28;20044;-84
2024/01/12 11:47:41;;;;;;;1.20;1.20;;;7.10;99.90;;;;;;4990637;28;20141;-85
2024/01/12 11:50:08;;;;;;;1.20;1.20;;;7.10;99.90;;;;;;4992359;28;20045;-83
2024/01/12 11:52:36;;;;;;;1.20;1.20;;;7.20;99.90;;;;;;4992541;28;20041;-84
2024/01/12 11:55:07;;;;;;;1.40;1.30;;;7.30;99.90;;;;;;4975812;28;20056;-85
2024/01/12 11:57:36;;;;;;;1.10;1.10;;;7.30;99.90;;;;;;4974956;28;20050;-84
2024/01/12 12:00:03;;;;;;;1.15;1.15;;;7.40;99.90;;;;;;4993996;28;20082;-84
2024/01/12 12:02:29;;;;;;;1.10;1.10;;;7.40;99.90;;;;;;4987629;28;20796;-84
2024/01/12 12:04:56;;;;;;;1.10;1.10;;;7.50;99.90;;;;;;5009136;28;20045;-84
2024/01/12 12:07:26;;;;;;;1.10;1.10;;;7.50;99.90;;;;;;4977131;28;20115;-84
2024/01/12 12:09:53;;;;;;;1.10;1.10;;;7.60;99.90;;;;;;4992737;28;20116;-84
2024/01/12 12:12:23;;;;;;;1.00;1.00;;;7.50;99.90;;;;;;4976595;28;20120;-84
2024/01/12 12:15:09;;;;;;;1.10;1.10;;;7.60;99.90;;;;;;5007006;28;20044;-84
2024/01/12 12:17:40;;;;;;;1.10;1.10;;;7.70;99.90;;;;;;5011472;28;20057;-84
2024/01/12 12:20:11;;;;;;;1.00;1.00;;;7.60;99.90;;;;;;4993260;28;20083;-84
2024/01/12 12:22:46;;;;;;;1.10;1.10;;;7.80;99.90;;;;;;4990010;28;20530;-84
2024/01/12 12:25:16;;;;;;;1.10;1.10;;;7.80;99.90;;;;;;4991946;28;20057;-83
2024/01/12 12:27:44;;;;;;;1.10;1.10;;;7.70;99.90;;;;;;5009222;28;20074;-84
2024/01/12 12:30:11;;;;;;;1.10;1.10;;;7.80;99.90;;;;;;4994605;28;20140;-84
2024/01/12 12:32:41;;;;;;;1.05;1.05;;;7.90;99.90;;;;;;4974549;28;20086;-84
2024/01/12 12:35:17;;;;;;;1.00;1.00;;;7.80;99.90;;;;;;4993424;28;20128;-84
2024/01/12 12:37:47;;;;;;;1.02;1.02;;;7.90;99.90;;;;;;4977854;28;20519;-84
2024/01/12 12:40:13;;;;;;;1.00;1.00;;;7.80;99.90;;;;;;4977332;28;20041;-84
2024/01/12 12:42:39;;;;;;;1.10;1.10;;;7.90;99.90;;;;;;5008481;28;20050;-84
2024/01/12 12:45:06;;;;;;;1.15;1.15;;;7.90;99.90;;;;;;4988696;28;20049;-84
2024/01/12 12:47:33;;;;;;;1.10;1.10;;;7.90;99.90;;;;;;4994260;28;20089;-84
2024/01/12 12:49:58;;;;;;;1.00;1.00;;;8.00;99.90;;;;;;4989524;28;20424;-83
2024/01/12 12:52:24;;;;;;;1.00;1.00;;;7.90;99.90;;;;;;4992132;28;20046;-84
2024/01/12 12:54:50;;;;;;;1.05;1.05;;;7.90;99.90;;;;;;4992204;28;20084;-83